Lake Elmo, Minnesota
Current Conditions -  °F | °C
As of 8:10 AM on Thursday 29 Jan 2015 (Local Time) from K21D Reporting Station
Overcast Overcast  
Wind Chill: 23°   Ceiling: 1600
Heat Index: 32°   Visibility: 10mi
Dew Point: 28°   Wind: 13mph
Humidity: 87%   Direction: 330°NNW
Pressure: 30.09"   Gusts: NA
Location:  45°N, 92.88°W
Report Text: K21D 291410Z AUTO 33011KT 10SM OVC016 00/M02 A3009 RMK AO2
Loading
Personal Weather Stations






























Interactive Weather Map New forecast layout! Learn more

10-Day Weather Forecast

Advertisements
Track Severe Weather on mobile